Time;durP1;ratioP1;P1;durP2;ratioP2;P2;SDS_P1;SDS_P2;PMS_P1;PMS_P2;Temp;Humidity;BMP_temperature;BMP_pressure;BME280_temperature;BME280_humidity;BME280_pressure;Samples;Min_cycle;Max_cycle;Signal;HPM_P1;HPM_P2
2022/05/08 00:01:29;;;;;;;1.55;1.13;;;;;;;21.29;43.41;101101.03;4163325;28;20080;-63
2022/05/08 00:03:30;;;;;;;1.20;1.10;;;;;;;21.30;43.13;101108.28;4165183;28;20103;-63
2022/05/08 00:05:31;;;;;;;1.52;1.08;;;;;;;21.21;43.28;101085.78;4164361;28;20037;-62
2022/05/08 00:07:33;;;;;;;1.80;1.00;;;;;;;21.27;43.17;101104.13;4164647;28;20045;-62
2022/05/08 00:09:35;;;;;;;1.58;1.00;;;;;;;21.30;43.01;101111.91;4164917;28;20095;-62
2022/05/08 00:11:36;;;;;;;3.00;1.20;;;;;;;21.21;43.45;101096.91;4164954;28;20038;-62
2022/05/08 00:13:47;;;;;;;1.13;0.90;;;;;;;21.29;43.01;101121.38;4180026;28;20037;-63
2022/05/08 00:15:48;;;;;;;1.48;1.10;;;;;;;21.29;43.39;101118.56;4164435;28;20038;-63
2022/05/08 00:17:50;;;;;;;1.80;1.38;;;;;;;21.28;43.46;101130.84;4164680;28;20075;-63
2022/05/08 00:19:54;;;;;;;2.30;1.30;;;;;;;21.29;43.45;101138.06;4164940;28;20107;-63
2022/05/08 00:21:55;;;;;;;1.95;1.10;;;;;;;21.30;43.41;101127.75;4164205;28;20049;-63
2022/05/08 00:23:59;;;;;;;2.25;1.30;;;;;;;21.29;43.12;101138.06;4164599;28;20021;-64
2022/05/08 00:26:01;;;;;;;1.97;1.30;;;;;;;21.29;43.58;101151.97;4164394;28;20041;-63
2022/05/08 00:28:04;;;;;;;2.25;1.40;;;;;;;21.29;43.25;101153.94;4163512;28;20500;-63
2022/05/08 00:30:06;;;;;;;2.20;1.42;;;;;;;21.14;43.25;101135.28;4164923;28;20535;-62
2022/05/08 00:32:08;;;;;;;1.80;1.30;;;;;;;21.29;43.61;101160.34;4164572;28;20029;-62
2022/05/08 00:34:10;;;;;;;1.42;1.20;;;;;;;21.29;43.39;101165.91;4164827;28;20037;-62
2022/05/08 00:36:12;;;;;;;2.38;1.40;;;;;;;21.18;43.45;101158.66;4162789;28;20127;-61
2022/05/08 00:38:13;;;;;;;3.08;1.45;;;;;;;21.29;43.50;101192.91;4165040;28;20049;-63
2022/05/08 00:40:14;;;;;;;1.90;1.35;;;;;;;21.29;43.45;101188.16;4164860;28;20045;-63
2022/05/08 00:42:16;;;;;;;2.45;1.20;;;;;;;21.25;43.49;101189.84;4179313;28;20075;-62
2022/05/08 00:44:17;;;;;;;1.48;1.02;;;;;;;21.29;43.55;101204.88;4164708;28;20473;-63
2022/05/08 00:46:19;;;;;;;1.92;1.50;;;;;;;21.27;43.25;101198.75;4164434;28;20177;-63
2022/05/08 00:48:22;;;;;;;2.42;1.13;;;;;;;21.28;43.49;101202.38;4164910;28;20041;-62
2022/05/08 00:50:24;;;;;;;1.52;1.30;;;;;;;21.24;43.47;101193.72;4163196;28;20099;-62
2022/05/08 00:52:29;;;;;;;1.48;1.13;;;;;;;21.20;43.56;101189.00;4164612;28;20119;-63
2022/05/08 00:54:34;;;;;;;2.65;1.45;;;;;;;21.12;43.42;101170.91;4164655;28;20037;-64
2022/05/08 00:56:36;;;;;;;2.22;1.50;;;;;;;21.27;43.38;101206.28;4164277;28;20372;-64
2022/05/08 00:58:44;;;;;;;1.80;1.40;;;;;;;21.28;43.34;101205.97;4164370;28;20022;-63
2022/05/08 01:00:46;;;;;;;2.15;1.45;;;;;;;21.02;43.12;101179.22;4164512;28;20099;-63
2022/05/08 01:02:50;;;;;;;1.67;1.20;;;;;;;21.28;43.34;101219.91;4164218;28;20092;-65
2022/05/08 01:04:51;;;;;;;2.50;1.23;;;;;;;21.29;43.59;101217.94;4164605;28;20037;-62
2022/05/08 01:06:52;;;;;;;3.05;1.58;;;;;;;21.28;43.64;101219.06;4164086;28;20025;-62
2022/05/08 01:08:57;;;;;;;1.85;1.42;;;;;;;21.17;43.55;101200.69;4164586;28;20042;-62
2022/05/08 01:11:00;;;;;;;2.40;1.65;;;;;;;21.25;43.68;101214.03;4164596;28;20461;-62
2022/05/08 01:13:02;;;;;;;1.83;1.30;;;;;;;21.27;43.20;101223.81;4164165;28;20033;-63
2022/05/08 01:15:18;;;;;;;2.35;1.40;;;;;;;21.26;43.36;101227.72;4163021;28;20025;-62
2022/05/08 01:17:19;;;;;;;2.92;1.60;;;;;;;21.27;43.40;101234.94;4163954;28;20046;-63
2022/05/08 01:19:21;;;;;;;3.88;1.75;;;;;;;21.22;43.59;101226.59;4164207;28;20110;-63
2022/05/08 01:21:42;;;;;;;2.40;1.70;;;;;;;21.17;43.36;101222.97;4178996;28;20049;-62
2022/05/08 01:23:45;;;;;;;1.90;1.52;;;;;;;21.27;43.32;101242.47;4164022;28;20042;-62
2022/05/08 01:25:52;;;;;;;2.05;1.40;;;;;;;21.26;43.58;101243.56;4164271;28;20107;-64
2022/05/08 01:27:53;;;;;;;3.17;1.50;;;;;;;21.27;43.68;101240.50;4164680;28;20091;-64
2022/05/08 01:29:55;;;;;;;2.00;1.50;;;;;;;21.25;43.59;101244.66;4164118;28;20509;-63
2022/05/08 01:31:59;;;;;;;2.97;1.70;;;;;;;21.23;43.52;101252.47;4164038;28;20440;-63
2022/05/08 01:34:00;;;;;;;1.75;1.20;;;;;;;21.24;43.19;101243.00;4164240;28;20042;-64
2022/05/08 01:36:02;;;;;;;1.75;1.25;;;;;;;21.26;43.19;101261.09;4165152;28;20037;-64
2022/05/08 01:38:05;;;;;;;2.88;1.60;;;;;;;21.26;43.45;101269.47;4167011;28;20107;-64
2022/05/08 01:40:10;;;;;;;2.15;1.45;;;;;;;21.18;43.25;101258.03;4165691;28;20030;-64
2022/05/08 01:42:11;;;;;;;1.52;1.20;;;;;;;21.26;43.49;101276.97;4166972;28;20138;-63
2022/05/08 01:44:12;;;;;;;1.88;1.67;;;;;;;21.26;43.57;101286.16;4167505;28;20091;-62
2022/05/08 01:46:14;;;;;;;2.50;1.40;;;;;;;21.26;43.11;101290.88;4182412;28;20041;-61
2022/05/08 01:48:25;;;;;;;2.17;1.67;;;;;;;21.25;43.54;101287.25;4166909;28;20049;-62
2022/05/08 01:50:29;;;;;;;2.38;1.60;;;;;;;21.26;43.47;101288.94;4166952;28;20087;-62
2022/05/08 01:52:32;;;;;;;2.65;1.80;;;;;;;21.24;43.10;101293.94;4166699;28;20091;-62
2022/05/08 01:54:36;;;;;;;2.15;1.65;;;;;;;21.23;43.34;101289.47;4167399;28;20049;-62
2022/05/08 01:56:37;;;;;;;2.53;1.58;;;;;;;21.24;43.19;101291.16;4166491;28;20080;-62
2022/05/08 01:58:41;;;;;;;2.10;1.55;;;;;;;21.00;43.37;101262.16;4166755;28;20045;-62
2022/05/08 02:00:43;;;;;;;2.33;1.63;;;;;;;21.24;43.43;101290.31;4165253;28;20053;-62
2022/05/08 02:02:48;;;;;;;1.58;1.40;;;;;;;21.09;43.32;101282.78;4167742;28;20037;-63
2022/05/08 02:04:49;;;;;;;2.17;1.58;;;;;;;21.23;43.49;101305.34;4167594;28;20034;-62
2022/05/08 02:06:50;;;;;;;3.05;1.70;;;;;;;21.21;43.45;101301.97;4167869;28;20029;-64
2022/05/08 02:08:52;;;;;;;2.60;1.50;;;;;;;21.06;43.26;101280.53;4167986;28;20053;-63
2022/05/08 02:10:53;;;;;;;2.50;1.33;;;;;;;21.22;43.16;101310.09;4168223;28;20072;-63
2022/05/08 02:12:55;;;;;;;3.25;1.92;;;;;;;21.20;43.14;101306.72;4167858;28;20037;-63
2022/05/08 02:14:56;;;;;;;2.75;1.40;;;;;;;21.20;43.34;101301.16;4168137;28;20026;-64
2022/05/08 02:16:57;;;;;;;2.60;1.70;;;;;;;21.21;43.45;101313.13;4166333;28;20481;-63
2022/05/08 02:18:59;;;;;;;1.85;1.48;;;;;;;21.19;43.17;101302.28;4166737;28;20026;-63
2022/05/08 02:21:00;;;;;;;2.95;1.65;;;;;;;21.19;43.17;101298.66;4166891;28;20033;-63
2022/05/08 02:23:08;;;;;;;2.55;1.75;;;;;;;21.10;43.17;101284.44;4166378;28;20107;-64
2022/05/08 02:25:10;;;;;;;2.53;1.70;;;;;;;21.16;43.24;101302.81;4166531;28;20412;-63
2022/05/08 02:27:11;;;;;;;2.35;1.42;;;;;;;21.18;43.07;101317.31;4166286;28;20034;-63
2022/05/08 02:29:12;;;;;;;3.25;1.58;;;;;;;21.18;43.00;101313.69;4166817;28;20041;-62
2022/05/08 02:31:14;;;;;;;2.03;1.38;;;;;;;21.17;43.31;101323.16;4166487;28;20079;-63
2022/05/08 02:33:21;;;;;;;2.63;1.80;;;;;;;21.06;43.24;101300.00;4181787;28;20178;-63
2022/05/08 02:35:23;;;;;;;2.92;1.77;;;;;;;21.16;43.03;101321.44;4166409;28;20094;-63
2022/05/08 02:37:25;;;;;;;3.22;1.60;;;;;;;21.14;43.29;101332.03;4165985;28;20075;-63
2022/05/08 02:39:26;;;;;;;2.10;1.45;;;;;;;21.15;43.08;101337.31;4165119;28;20447;-63
2022/05/08 02:41:28;;;;;;;2.75;1.67;;;;;;;21.11;43.29;101330.63;4166543;28;20381;-62
2022/05/08 02:43:29;;;;;;;2.95;1.98;;;;;;;21.15;43.05;101340.09;4165960;28;20063;-62
2022/05/08 02:45:30;;;;;;;2.97;1.75;;;;;;;21.13;42.96;101336.78;4165303;28;20045;-62
2022/05/08 02:47:33;;;;;;;2.55;1.50;;;;;;;21.14;43.12;101341.22;4165994;28;20045;-62
2022/05/08 02:49:34;;;;;;;4.05;1.55;;;;;;;21.12;43.01;101349.03;4166061;28;20045;-62
2022/05/08 02:51:35;;;;;;;1.73;1.48;;;;;;;21.13;43.05;101356.25;4165994;28;20069;-62
2022/05/08 02:53:37;;;;;;;3.40;1.80;;;;;;;21.13;42.94;101347.91;4165801;28;20467;-63
2022/05/08 03:00:19;;;;;;;2.30;1.63;;;;;;;21.13;42.91;101356.25;4166062;28;20087;-62
2022/05/08 03:02:20;;;;;;;2.10;1.60;;;;;;;21.10;43.16;101359.56;4165741;28;20079;-62
2022/05/08 03:04:22;;;;;;;2.90;1.92;;;;;;;21.12;42.98;101360.16;4165797;28;20095;-63
2022/05/08 03:06:23;;;;;;;2.08;1.70;;;;;;;21.11;43.27;101361.22;4165798;28;20041;-62
2022/05/08 03:08:24;;;;;;;2.40;1.50;;;;;;;21.09;43.16;101355.13;4165862;28;20033;-63
2022/05/08 03:10:26;;;;;;;1.80;1.50;;;;;;;21.10;43.23;101359.56;4166064;28;20075;-62
2022/05/08 03:12:30;;;;;;;3.47;1.85;;;;;;;21.11;43.00;101369.59;4165896;28;20038;-62
2022/05/08 03:14:32;;;;;;;2.40;1.80;;;;;;;21.00;43.28;101360.38;4165673;28;20037;-62
2022/05/08 03:16:36;;;;;;;2.25;1.65;;;;;;;21.08;43.20;101367.38;4165878;28;20107;-63
2022/05/08 03:18:41;;;;;;;2.83;1.90;;;;;;;21.08;43.29;101364.59;4165470;28;20079;-63
2022/05/08 03:20:43;;;;;;;1.92;1.70;;;;;;;21.09;43.20;101366.25;4165590;28;20530;-62
2022/05/08 03:22:44;;;;;;;2.13;1.75;;;;;;;21.09;42.87;101366.25;4165667;28;20034;-63
2022/05/08 03:24:45;;;;;;;2.97;2.00;;;;;;;20.89;42.93;101338.31;4165519;28;20099;-62
2022/05/08 03:26:47;;;;;;;3.10;1.80;;;;;;;20.95;42.83;101353.94;4147104;28;20041;-63
2022/05/08 03:28:48;;;;;;;5.70;1.90;;;;;;;20.87;43.19;101326.63;4165640;28;20424;-63
2022/05/08 03:30:53;;;;;;;1.85;1.52;;;;;;;21.07;43.04;101376.78;4165757;28;20045;-63
2022/05/08 03:32:58;;;;;;;2.13;1.50;;;;;;;21.07;42.94;101368.44;4165490;28;20042;-63
2022/05/08 03:35:03;;;;;;;2.05;1.52;;;;;;;21.06;43.04;101361.22;4165199;28;20079;-63
2022/05/08 03:37:08;;;;;;;;;;;;;;;21.03;42.96;101373.75;4165512;28;20033;-63
2022/05/08 03:39:11;;;;;;;2.22;1.60;;;;;;;21.09;42.63;101363.47;4165411;28;19913;-63
2022/05/08 03:41:16;;;;;;;3.92;1.70;;;;;;;21.09;43.00;101359.84;4165100;28;20037;-63
2022/05/08 03:43:17;;;;;;;2.42;1.65;;;;;;;20.90;42.71;101334.44;4165393;28;20041;-62
2022/05/08 03:45:21;;;;;;;2.75;1.67;;;;;;;21.05;42.77;101360.38;4165391;28;20041;-64
2022/05/08 03:47:23;;;;;;;1.65;1.30;;;;;;;21.03;42.93;101362.63;4164630;28;20041;-65
2022/05/08 03:49:27;;;;;;;2.05;1.77;;;;;;;21.06;43.03;101369.56;4165354;28;20038;-63
2022/05/08 03:51:28;;;;;;;1.85;1.63;;;;;;;21.05;43.24;101377.06;4164967;28;20500;-63
2022/05/08 03:53:29;;;;;;;2.17;1.70;;;;;;;21.05;42.88;101376.25;4164842;28;20042;-63
2022/05/08 03:55:31;;;;;;;2.22;1.63;;;;;;;20.83;43.07;101331.06;4164698;28;20389;-63
2022/05/08 03:57:32;;;;;;;1.98;1.63;;;;;;;21.04;42.96;101369.00;4164430;28;20033;-62
2022/05/08 03:59:34;;;;;;;2.47;1.67;;;;;;;21.04;42.96;101374.56;4165384;28;20049;-63
2022/05/08 04:01:35;;;;;;;1.83;1.40;;;;;;;20.90;43.02;101351.16;4164836;28;20045;-62
2022/05/08 04:03:36;;;;;;;2.35;1.67;;;;;;;21.03;42.79;101373.75;4164630;28;20053;-63
2022/05/08 04:05:38;;;;;;;2.92;1.90;;;;;;;20.86;42.91;101350.00;4164717;28;20029;-63
2022/05/08 04:07:42;;;;;;;2.78;1.58;;;;;;;20.79;43.10;101334.38;4164876;28;20041;-63
2022/05/08 04:09:43;;;;;;;2.85;2.00;;;;;;;21.04;43.11;101377.34;4164713;28;20096;-63
2022/05/08 04:11:45;;;;;;;2.30;1.60;;;;;;;21.03;43.24;101379.31;4164903;28;20087;-64
2022/05/08 04:13:46;;;;;;;2.40;1.90;;;;;;;20.90;43.23;101356.72;4165078;28;20037;-63
2022/05/08 04:18:09;;;;;;;2.55;1.92;;;;;;;21.06;42.92;101383.47;4165647;28;20096;-63
2022/05/08 04:20:13;;;;;;;1.83;1.42;;;;;;;21.02;42.95;101385.97;4164680;28;20034;-64
2022/05/08 04:24:36;;;;;;;2.15;1.73;;;;;;;21.02;42.94;101388.75;4164765;28;20435;-62
2022/05/08 04:26:40;;;;;;;2.13;1.80;;;;;;;21.01;43.10;101383.47;4164622;28;20037;-63
2022/05/08 04:28:44;;;;;;;2.10;1.77;;;;;;;21.03;42.93;101396.00;4164877;28;20025;-63
2022/05/08 04:30:49;;;;;;;1.80;1.70;;;;;;;21.04;42.87;101399.63;4164603;28;20049;-63
2022/05/08 04:32:51;;;;;;;2.10;1.70;;;;;;;21.04;43.08;101388.50;4164638;28;20448;-62
2022/05/08 04:34:55;;;;;;;2.22;1.88;;;;;;;21.02;43.02;101396.25;4164350;28;20041;-63
2022/05/08 04:36:56;;;;;;;2.85;1.67;;;;;;;21.03;43.10;101401.56;4162705;28;20537;-62
2022/05/08 04:38:58;;;;;;;2.42;2.00;;;;;;;20.98;43.09;101400.69;4164628;28;20029;-63
2022/05/08 04:40:59;;;;;;;3.20;2.45;;;;;;;21.03;43.13;101412.69;4164730;28;20037;-63
2022/05/08 04:43:01;;;;;;;2.90;2.00;;;;;;;21.00;42.93;101393.75;4164679;28;20108;-63
2022/05/08 04:45:06;;;;;;;2.38;1.80;;;;;;;21.03;43.06;101418.25;4163222;28;20045;-63
2022/05/08 04:47:07;;;;;;;1.85;1.55;;;;;;;21.03;43.21;101412.69;4164345;28;20087;-64
2022/05/08 04:49:08;;;;;;;2.85;1.80;;;;;;;21.02;42.86;101405.44;4164468;28;20057;-63
2022/05/08 04:51:11;;;;;;;3.10;1.75;;;;;;;20.91;42.84;101391.75;4164437;28;20485;-62
2022/05/08 04:53:13;;;;;;;2.83;1.67;;;;;;;21.03;43.01;101411.88;4164616;28;20465;-63
2022/05/08 04:55:14;;;;;;;1.95;1.52;;;;;;;21.01;42.90;101414.91;4164442;28;20091;-63
2022/05/08 04:57:19;;;;;;;2.63;2.08;;;;;;;21.01;42.73;101422.41;4179863;28;20094;-63
2022/05/08 04:59:20;;;;;;;1.87;1.50;;;;;;;21.01;42.99;101414.06;4164592;28;20416;-62
2022/05/08 05:01:22;;;;;;;3.05;2.10;;;;;;;21.00;42.89;101418.78;4164393;28;20042;-63
2022/05/08 05:03:24;;;;;;;2.90;1.70;;;;;;;21.00;42.96;101415.19;4164371;28;20492;-63
2022/05/08 05:05:25;;;;;;;2.60;1.70;;;;;;;21.00;42.90;101417.97;4164655;28;20050;-63
2022/05/08 05:07:27;;;;;;;2.97;1.50;;;;;;;21.01;42.66;101425.19;4164260;28;20026;-63
2022/05/08 05:09:31;;;;;;;2.47;2.15;;;;;;;20.98;42.76;101414.59;4166722;28;20416;-63
2022/05/08 05:11:32;;;;;;;2.13;1.75;;;;;;;21.00;43.11;101423.53;4167726;28;20025;-63
2022/05/08 05:13:40;;;;;;;1.73;1.60;;;;;;;20.99;42.79;101416.28;4167513;28;20095;-64
2022/05/08 05:15:41;;;;;;;1.90;1.70;;;;;;;21.00;43.13;101415.19;4167392;28;20099;-61
2022/05/08 05:17:42;;;;;;;2.78;1.88;;;;;;;20.99;42.75;101406.00;4167903;28;20362;-63
2022/05/08 05:19:44;;;;;;;2.25;1.90;;;;;;;21.00;42.96;101406.84;4167517;28;20033;-64
2022/05/08 05:21:45;;;;;;;2.60;1.70;;;;;;;20.99;43.00;101399.59;4166726;28;20416;-62
2022/05/08 05:23:49;;;;;;;2.42;1.80;;;;;;;20.97;42.93;101385.09;4167268;28;20083;-63
2022/05/08 05:25:57;;;;;;;2.88;1.50;;;;;;;20.97;42.99;101385.94;4167258;28;20511;-62
2022/05/08 05:27:58;;;;;;;2.28;1.70;;;;;;;20.97;42.95;101383.16;4167488;28;20546;-62
2022/05/08 05:30:03;;;;;;;3.35;1.83;;;;;;;20.97;42.66;101387.88;4167543;28;20099;-62
2022/05/08 05:32:07;;;;;;;2.53;1.77;;;;;;;20.97;42.99;101379.53;4167176;28;20037;-63
2022/05/08 05:34:08;;;;;;;2.03;1.65;;;;;;;20.97;42.83;101385.09;4167978;28;20029;-62
2022/05/08 05:36:09;;;;;;;2.65;1.60;;;;;;;20.97;42.93;101385.09;4166885;28;20430;-63
2022/05/08 05:38:11;;;;;;;3.13;1.73;;;;;;;20.96;42.79;101384.25;4167110;28;20045;-62
2022/05/08 05:40:12;;;;;;;2.40;1.77;;;;;;;20.96;42.80;101377.88;4167330;28;20103;-62
2022/05/08 05:42:14;;;;;;;2.38;1.73;;;;;;;20.88;42.76;101361.69;4167977;28;20119;-62
2022/05/08 05:44:16;;;;;;;2.47;1.73;;;;;;;20.95;42.96;101376.19;4166836;28;20182;-62
2022/05/08 05:48:45;;;;;;;3.45;1.80;;;;;;;20.88;42.73;101356.13;4167173;28;20111;-62
2022/05/08 05:50:46;;;;;;;1.77;1.30;;;;;;;20.95;43.03;101374.25;4165767;28;20045;-63
2022/05/08 05:52:51;;;;;;;2.35;1.75;;;;;;;20.84;42.67;101353.03;4166888;28;20099;-64
2022/05/08 05:54:52;;;;;;;2.22;1.77;;;;;;;20.93;42.62;101381.19;4166810;28;20033;-63
2022/05/08 05:56:54;;;;;;;3.53;2.00;;;;;;;20.94;42.85;101374.53;4166380;28;20038;-61
2022/05/08 05:58:58;;;;;;;2.22;1.75;;;;;;;20.93;42.59;101373.66;4166690;28;20037;-61
2022/05/08 06:00:59;;;;;;;1.97;1.60;;;;;;;20.93;42.72;101370.06;4166459;28;20100;-62
2022/05/08 06:03:01;;;;;;;1.90;1.48;;;;;;;20.87;42.97;101357.25;4166678;28;20271;-62
2022/05/08 06:05:02;;;;;;;2.50;1.70;;;;;;;20.93;42.80;101361.72;4166846;28;20034;-62
2022/05/08 06:07:09;;;;;;;2.05;1.80;;;;;;;20.86;42.93;101361.13;4166420;28;20424;-61
2022/05/08 06:09:10;;;;;;;2.50;1.63;;;;;;;20.92;42.58;101366.44;4166332;28;20033;-62
2022/05/08 06:11:11;;;;;;;3.05;1.80;;;;;;;20.88;42.50;101358.91;4166640;28;20092;-63
2022/05/08 06:13:13;;;;;;;2.25;1.77;;;;;;;20.91;42.59;101363.94;4166418;28;20539;-62
2022/05/08 06:15:17;;;;;;;2.50;1.83;;;;;;;20.91;42.78;101366.72;4166641;28;20021;-63
2022/05/08 06:17:18;;;;;;;2.65;1.95;;;;;;;20.78;42.66;101354.13;4166391;28;20469;-63
2022/05/08 06:19:20;;;;;;;2.80;1.90;;;;;;;20.91;42.88;101369.50;4166959;28;20435;-63
2022/05/08 06:21:25;;;;;;;1.92;1.58;;;;;;;20.86;42.84;101355.56;4165658;28;20076;-64
2022/05/08 06:23:26;;;;;;;2.38;1.60;;;;;;;20.86;42.92;101358.34;4166763;28;20041;-63
2022/05/08 06:25:28;;;;;;;3.05;1.80;;;;;;;20.91;42.94;101375.06;4165226;28;20099;-63
2022/05/08 06:27:32;;;;;;;2.05;1.58;;;;;;;20.89;42.52;101366.13;4165263;28;20439;-64
2022/05/08 06:29:33;;;;;;;2.33;1.90;;;;;;;20.89;42.64;101360.56;4166324;28;20025;-63
2022/05/08 06:31:37;;;;;;;2.10;1.42;;;;;;;20.87;42.78;101368.38;4166639;28;20048;-64
2022/05/08 06:33:39;;;;;;;2.75;1.63;;;;;;;20.88;42.92;101372.81;4166296;28;20045;-64
2022/05/08 06:35:43;;;;;;;2.03;1.70;;;;;;;20.76;42.76;101354.41;4165908;28;20075;-63
2022/05/08 06:37:45;;;;;;;2.17;1.55;;;;;;;20.77;42.89;101358.84;4166388;28;20021;-63
2022/05/08 06:39:46;;;;;;;3.38;1.67;;;;;;;20.87;42.88;101362.81;4166573;28;20045;-64
2022/05/08 06:41:48;;;;;;;1.50;1.40;;;;;;;20.87;42.66;101360.03;4166384;28;20046;-64
2022/05/08 06:43:49;;;;;;;2.28;1.65;;;;;;;20.77;42.77;101347.72;4166012;28;20123;-63
2022/05/08 06:45:53;;;;;;;2.25;1.52;;;;;;;20.78;42.66;101354.97;4164509;28;20452;-63
2022/05/08 06:47:58;;;;;;;1.58;1.42;;;;;;;20.85;42.78;101370.56;4166379;28;20042;-63
2022/05/08 06:49:59;;;;;;;2.87;2.03;;;;;;;20.86;42.78;101366.69;4166244;28;20041;-63
2022/05/08 06:52:00;;;;;;;2.00;1.50;;;;;;;20.81;42.64;101354.44;4167061;28;20084;-63
2022/05/08 06:54:03;;;;;;;2.78;1.77;;;;;;;20.84;42.92;101366.94;4166143;28;20108;-64
2022/05/08 06:56:07;;;;;;;1.52;1.40;;;;;;;20.86;42.61;101366.69;4165581;28;20041;-63
2022/05/08 06:58:12;;;;;;;2.63;1.67;;;;;;;20.76;42.49;101351.63;4166021;28;20423;-63
2022/05/08 07:02:41;;;;;;;2.35;1.88;;;;;;;20.84;42.75;101358.59;4166390;28;20087;-63
2022/05/08 07:04:42;;;;;;;2.15;1.42;;;;;;;20.85;42.70;101381.69;4165656;28;20066;-63
2022/05/08 07:06:47;;;;;;;2.45;1.55;;;;;;;20.76;42.44;101361.91;4165647;28;20080;-63
2022/05/08 07:08:49;;;;;;;1.75;1.55;;;;;;;20.83;42.57;101372.78;4165637;28;20457;-63
2022/05/08 07:10:53;;;;;;;2.85;1.42;;;;;;;20.83;42.49;101367.22;4164434;28;20076;-63
2022/05/08 07:12:55;;;;;;;2.83;1.60;;;;;;;20.83;42.62;101373.63;4165579;28;20045;-64
2022/05/08 07:14:58;;;;;;;2.80;1.60;;;;;;;20.75;42.78;101366.63;4165814;28;20071;-63
2022/05/08 07:17:00;;;;;;;2.33;1.40;;;;;;;20.82;42.78;101371.97;4165496;28;20041;-63
2022/05/08 07:19:07;;;;;;;2.50;1.77;;;;;;;20.82;42.70;101383.09;4166244;28;20382;-63
2022/05/08 07:21:08;;;;;;;1.85;1.55;;;;;;;20.31;42.88;101293.78;4165646;28;20092;-64
2022/05/08 07:23:11;;;;;;;2.00;1.65;;;;;;;20.81;42.51;101382.25;4165463;28;20075;-63
2022/05/08 07:25:15;;;;;;;1.80;1.38;;;;;;;20.74;42.81;101359.38;4164477;28;20041;-63
2022/05/08 07:27:17;;;;;;;1.92;1.50;;;;;;;20.81;42.67;101375.84;4165114;28;20037;-64
2022/05/08 07:29:18;;;;;;;2.25;1.73;;;;;;;20.81;42.67;101382.25;4165639;28;20041;-63
2022/05/08 07:31:19;;;;;;;1.60;1.50;;;;;;;20.77;42.57;101369.97;4164910;28;20037;-63
2022/05/08 07:33:21;;;;;;;1.75;1.30;;;;;;;20.81;42.85;101385.03;4164590;28;20026;-63
2022/05/08 07:37:43;;;;;;;1.55;1.45;;;;;;;20.80;42.77;101375.03;4165350;28;20087;-64
2022/05/08 07:39:45;;;;;;;2.10;1.60;;;;;;;20.74;42.46;101366.91;4165480;28;20061;-63
2022/05/08 07:41:46;;;;;;;2.45;1.70;;;;;;;20.81;42.78;101378.63;4165211;28;20445;-63
2022/05/08 07:43:47;;;;;;;2.28;1.63;;;;;;;20.80;42.88;101374.16;4164867;28;20095;-63
2022/05/08 07:45:49;;;;;;;2.65;1.63;;;;;;;20.75;42.67;101380.53;4163516;28;20045;-64
2022/05/08 07:47:50;;;;;;;1.60;1.42;;;;;;;20.76;42.67;101362.75;4165111;28;20068;-63
2022/05/08 07:49:55;;;;;;;1.42;1.30;;;;;;;20.81;42.84;101373.91;4165257;28;20088;-63
2022/05/08 07:51:56;;;;;;;1.92;1.73;;;;;;;20.68;42.85;101349.34;4163483;28;20038;-63
2022/05/08 07:54:00;;;;;;;1.50;1.38;;;;;;;20.80;42.86;101372.22;4163374;28;20140;-63
2022/05/08 07:56:02;;;;;;;2.47;1.60;;;;;;;20.81;42.95;101378.63;4164726;28;20029;-62
2022/05/08 07:58:04;;;;;;;1.55;1.45;;;;;;;20.79;42.86;101373.31;4164588;28;20033;-62
2022/05/08 08:00:08;;;;;;;1.77;1.60;;;;;;;20.70;42.69;101355.47;4164929;28;20041;-64
2022/05/08 08:02:10;;;;;;;1.42;1.33;;;;;;;20.67;42.81;101342.13;4165309;28;20029;-62
2022/05/08 08:04:12;;;;;;;2.35;1.77;;;;;;;20.79;42.83;101373.31;4164328;28;20484;-62
2022/05/08 08:06:19;;;;;;;1.90;1.48;;;;;;;20.79;42.94;101359.41;4164375;28;20029;-62
2022/05/08 08:08:23;;;;;;;2.75;1.67;;;;;;;20.80;42.74;101371.38;4164638;28;20042;-62
2022/05/08 08:10:24;;;;;;;1.70;1.38;;;;;;;20.80;42.88;101375.03;4165125;28;20091;-61
2022/05/08 08:12:26;;;;;;;2.55;1.42;;;;;;;20.72;42.69;101367.19;4180424;28;20122;-62
2022/05/08 08:14:30;;;;;;;1.73;1.52;;;;;;;20.62;43.00;101347.66;4164416;28;20038;-63
2022/05/08 08:16:32;;;;;;;3.10;1.50;;;;;;;20.79;42.89;101378.88;4164685;28;20075;-62
2022/05/08 08:18:33;;;;;;;1.30;1.20;;;;;;;20.64;42.97;101359.34;4164993;28;20047;-62
2022/05/08 08:20:34;;;;;;;2.00;1.40;;;;;;;20.78;42.81;101377.22;4179471;28;20041;-62
2022/05/08 08:22:36;;;;;;;2.22;1.70;;;;;;;20.79;43.10;101384.44;4164696;28;20464;-62
2022/05/08 08:24:37;;;;;;;1.95;1.75;;;;;;;20.69;42.89;101367.69;4164749;28;20423;-62
2022/05/08 08:26:40;;;;;;;1.77;1.50;;;;;;;20.78;42.95;101388.34;4164585;28;20448;-62
2022/05/08 08:28:42;;;;;;;1.92;1.52;;;;;;;20.79;43.11;101389.16;4164563;28;20045;-62
2022/05/08 08:30:43;;;;;;;1.60;1.40;;;;;;;20.75;43.16;101391.66;4179765;28;20041;-62
2022/05/08 08:32:45;;;;;;;1.85;1.58;;;;;;;20.80;43.02;101391.72;4164639;28;20087;-62
2022/05/08 08:34:49;;;;;;;1.73;1.35;;;;;;;20.74;42.86;101381.63;4164632;28;20037;-62
2022/05/08 08:36:51;;;;;;;1.85;1.50;;;;;;;20.58;43.16;101354.84;4162582;28;20497;-62
2022/05/08 08:38:52;;;;;;;2.50;1.65;;;;;;;20.78;43.11;101382.78;4164539;28;20111;-62
2022/05/08 08:40:56;;;;;;;2.90;1.60;;;;;;;20.80;43.24;101390.84;4164418;28;20049;-62
2022/05/08 08:43:09;;;;;;;1.77;1.40;;;;;;;20.77;43.27;101386.66;4164560;28;20041;-62
2022/05/08 08:47:43;;;;;;;2.40;1.60;;;;;;;20.79;42.87;101394.72;4168511;28;20076;-63
2022/05/08 08:49:53;;;;;;;1.75;1.05;;;;;;;20.76;43.28;101384.16;4167826;28;20072;-63
2022/05/08 08:51:55;;;;;;;1.80;1.60;;;;;;;20.72;43.09;101377.47;4168118;28;20042;-63
2022/05/08 08:53:57;;;;;;;1.63;1.52;;;;;;;20.80;43.01;101390.84;4166371;28;20041;-63
2022/05/08 08:56:01;;;;;;;1.58;1.42;;;;;;;20.80;42.83;101391.72;4167444;28;20096;-63
2022/05/08 08:58:02;;;;;;;1.83;1.45;;;;;;;20.80;43.21;101393.63;4181907;28;20037;-63
2022/05/08 09:00:10;;;;;;;1.55;1.45;;;;;;;20.79;43.14;101401.13;4168251;28;20473;-63
2022/05/08 09:02:16;;;;;;;1.83;1.20;;;;;;;20.72;43.24;101378.31;4167736;28;20562;-63
2022/05/08 09:04:21;;;;;;;1.85;1.40;;;;;;;20.77;43.33;101385.84;4168110;28;20602;-62
2022/05/08 09:06:22;;;;;;;1.88;1.63;;;;;;;20.79;43.19;101390.00;4167297;28;20042;-63
2022/05/08 09:08:35;;;;;;;1.98;1.60;;;;;;;20.79;43.17;101398.34;4167827;28;20416;-62
2022/05/08 09:10:45;;;;;;;2.15;1.33;;;;;;;20.65;43.02;101366.56;4167544;28;20045;-64
2022/05/08 09:12:52;;;;;;;2.15;1.60;;;;;;;20.79;43.14;101394.72;4167394;28;20427;-62
2022/05/08 09:14:58;;;;;;;1.98;1.80;;;;;;;20.78;42.97;101398.63;4167515;28;20045;-63
2022/05/08 09:17:03;;;;;;;2.10;1.70;;;;;;;20.77;43.15;101403.34;4166762;28;20084;-63
2022/05/08 09:19:04;;;;;;;1.92;1.70;;;;;;;20.79;43.06;101409.47;4167399;28;20072;-62
2022/05/08 09:23:41;;;;;;;2.05;1.50;;;;;;;20.67;43.20;101391.34;4167781;28;20068;-62
2022/05/08 09:25:52;;;;;;;1.70;1.60;;;;;;;20.77;43.07;101420.06;4166972;28;20067;-63
2022/05/08 09:28:02;;;;;;;1.55;1.45;;;;;;;20.78;42.96;101418.94;4166050;28;20087;-62
2022/05/08 09:30:08;;;;;;;2.55;1.50;;;;;;;20.78;42.88;101413.38;4181845;28;20041;-62
2022/05/08 09:32:10;;;;;;;1.40;1.30;;;;;;;20.79;42.87;101417.81;4167245;28;20358;-62
2022/05/08 09:34:14;;;;;;;2.55;1.48;;;;;;;20.79;42.92;101422.56;4167211;28;20083;-62
2022/05/08 09:36:24;;;;;;;2.00;1.80;;;;;;;20.78;43.21;101416.16;4166927;28;20045;-62
2022/05/08 09:38:53;;;;;;;1.58;1.48;;;;;;;20.76;43.25;101423.94;4167208;28;20424;-62
2022/05/08 09:41:17;;;;;;;1.70;1.50;;;;;;;20.77;43.05;101425.59;4167127;28;20033;-62
2022/05/08 09:43:28;;;;;;;1.50;1.40;;;;;;;20.67;43.20;101402.47;4166987;28;20025;-62
2022/05/08 09:45:29;;;;;;;1.60;1.50;;;;;;;20.79;42.89;101430.91;4166856;28;20095;-62
2022/05/08 09:47:45;;;;;;;2.08;1.48;;;;;;;20.77;43.19;101425.59;4166961;28;20107;-62
2022/05/08 09:49:47;;;;;;;1.77;1.60;;;;;;;20.79;43.19;101428.94;4166925;28;20092;-62
2022/05/08 09:51:51;;;;;;;1.73;1.38;;;;;;;20.72;43.13;101416.41;4166903;28;20037;-62
2022/05/08 09:53:53;;;;;;;1.70;1.50;;;;;;;20.79;43.26;101428.13;4166911;28;20063;-62